MSC Clorinda — 3FDW7 — position and weather

sailwx.info

Track history (hours):
 
Tides and Currents Weather Stations Pressure Air Temp Water Temp Dewpoint Dewpoint Depression Visibility Wind Speed Wind Dir Waves Ship Positions

MSC Clorinda

Last reported at 2017-Jan-23 14:31 UTC. Time now 2017-Jan-23 14:55 UTC.
Position N 43°10' E 005°07'.

Length 366 m; draft 11 m.

Type: Ship (hazmat cat A). MMSI: 373233000.

Date/timePositionNaut miles runAvg speedWind from/ knotsBaromVisibWave heightAir tempDewpointWater temp
2017-Jan-23 14:31N 43°10' E 005°07'13 6.6
2017-Jan-23 12:33N 43°01' E 005°21'8 6.7
2017-Jan-23 11:26N 42°56' E 005°29'6 5.8
2017-Jan-23 10:26N 42°53' E 005°35'7 6.7
2017-Jan-23 09:27N 42°48' E 005°41'6613.5
2017-Jan-23 04:32N 43°01' E 007°10'2120.9
2017-Jan-23 03:34N 43°10' E 007°35'2120.6
2017-Jan-23 02:31N 43°21' E 008°00'2121.1
2017-Jan-23 01:32N 43°40' E 008°13'2121.4
2017-Jan-23 00:34N 43°58' E 008°26'2121.0
2017-Jan-22 23:34N 44°17' E 008°39'10 9.0
2017-Jan-22 22:28N 44°25' E 008°47'0 0.0
2017-Jan-22 21:31N 44°25' E 008°47'0 0.0
2017-Jan-22 20:31N 44°25' E 008°47'0 0.0
2017-Jan-22 19:31N 44°25' E 008°47'0 0.0
2017-Jan-22 18:31N 44°25' E 008°47'0 0.0
2017-Jan-22 17:31N 44°25' E 008°47'0 0.0
2017-Jan-22 16:31N 44°25' E 008°47'0 0.0
2017-Jan-22 15:31N 44°25' E 008°47'0 0.0
2017-Jan-22 14:31N 44°25' E 008°47'0 0.0
2017-Jan-22 13:31N 44°25' E 008°47'0 0.0
2017-Jan-22 12:31N 44°25' E 008°47'0 0.0
2017-Jan-22 11:31N 44°25' E 008°47'0 0.0
2017-Jan-22 10:28N 44°25' E 008°47'0 0.0
2017-Jan-22 09:31N 44°25' E 008°47'0 0.0
2017-Jan-22 08:31N 44°25' E 008°47'0 0.0
2017-Jan-22 07:31N 44°25' E 008°47'0 0.0
2017-Jan-22 06:31N 44°25' E 008°47'0 0.0
2017-Jan-22 05:31N 44°25' E 008°47'0 0.0
2017-Jan-22 04:31N 44°25' E 008°47'0 0.0
2017-Jan-22 03:31N 44°25' E 008°47'0 0.0
2017-Jan-22 02:31N 44°25' E 008°47'0 0.0
2017-Jan-22 01:31N 44°25' E 008°47'0 0.0
2017-Jan-22 00:31N 44°25' E 008°47'0 0.0
2017-Jan-21 23:31N 44°25' E 008°47'0 0.0
2017-Jan-21 22:31N 44°25' E 008°47'0 0.0
2017-Jan-21 21:31N 44°25' E 008°47'0 0.0
2017-Jan-21 20:31N 44°25' E 008°47'0 0.0
2017-Jan-21 19:31N 44°25' E 008°47'0 0.0
2017-Jan-21 18:28N 44°25' E 008°47'0 0.0
2017-Jan-21 17:31N 44°25' E 008°47'0 0.0
2017-Jan-21 16:31N 44°25' E 008°47'0 0.0
2017-Jan-21 15:31N 44°25' E 008°47'0 0.0
2017-Jan-21 14:31N 44°25' E 008°47'0 0.0
2017-Jan-21 13:31N 44°25' E 008°47'0 0.0
2017-Jan-21 12:31N 44°25' E 008°47'0 0.0
2017-Jan-21 11:31N 44°25' E 008°47'0 0.0
2017-Jan-21 10:31N 44°25' E 008°47'0 0.0
2017-Jan-21 09:31N 44°25' E 008°47'0 0.0
2017-Jan-21 08:31N 44°25' E 008°47'0 0.0
2017-Jan-21 07:31N 44°25' E 008°47'0 0.0
2017-Jan-21 06:31N 44°25' E 008°47'0 0.0
2017-Jan-21 05:31N 44°25' E 008°47'0 0.0
2017-Jan-21 04:31N 44°25' E 008°47'0 0.0
2017-Jan-21 03:31N 44°25' E 008°47'0 0.0
2017-Jan-21 02:31N 44°25' E 008°47'0 0.0
2017-Jan-21 01:31N 44°25' E 008°47'0 0.0
2017-Jan-21 00:31N 44°25' E 008°47'0 0.0
2017-Jan-20 23:31N 44°25' E 008°47'0 0.0
2017-Jan-20 22:31N 44°25' E 008°47'0 0.0
2017-Jan-20 21:31N 44°25' E 008°47'0 0.0
2017-Jan-20 20:31N 44°25' E 008°47'0 0.0
2017-Jan-20 19:31N 44°25' E 008°47'0 0.0
2017-Jan-20 18:31N 44°25' E 008°47'0 0.0
2017-Jan-20 17:25N 44°25' E 008°47'0 0.0
2017-Jan-20 16:31N 44°25' E 008°47'0 0.0
2017-Jan-20 15:25N 44°25' E 008°47'0 0.0
2017-Jan-20 14:28N 44°25' E 008°47'0 0.0
2017-Jan-20 13:28N 44°25' E 008°47'0 0.0
2017-Jan-20 12:31N 44°25' E 008°47'0 0.0
2017-Jan-20 11:31N 44°25' E 008°47'0 0.0
2017-Jan-20 10:31N 44°25' E 008°47'0 0.0
2017-Jan-20 09:28N 44°25' E 008°47'0 0.0
2017-Jan-20 08:31N 44°25' E 008°47'0 0.0
2017-Jan-20 07:31N 44°25' E 008°47'0 0.0
2017-Jan-20 06:31N 44°25' E 008°47'0 0.0
2017-Jan-20 05:31N 44°25' E 008°47'0 0.0
2017-Jan-20 04:31N 44°25' E 008°47'0 0.0
2017-Jan-20 03:31N 44°25' E 008°47'0 0.0
2017-Jan-20 02:31N 44°25' E 008°47'0 0.0
2017-Jan-20 01:31N 44°25' E 008°47'0 0.0
2017-Jan-20 00:31N 44°25' E 008°47'0 0.0
2017-Jan-19 23:25N 44°25' E 008°47'0 0.0
2017-Jan-19 22:31N 44°25' E 008°47'0 0.0
2017-Jan-19 21:31N 44°25' E 008°47'0 0.0
2017-Jan-19 20:31N 44°25' E 008°47'0 0.0
2017-Jan-19 19:28N 44°25' E 008°47'0 0.0
2017-Jan-19 18:28N 44°25' E 008°47'0 0.0
2017-Jan-19 17:31N 44°25' E 008°47'0 0.0
2017-Jan-19 16:31N 44°25' E 008°47'0 0.0
2017-Jan-19 15:31N 44°25' E 008°47'0 0.0
2017-Jan-19 14:31N 44°25' E 008°47'0 0.0
2017-Jan-19 13:33N 44°25' E 008°47'3 2.9
2017-Jan-19 12:34N 44°23' E 008°44'2 1.7
2017-Jan-19 11:33N 44°22' E 008°43'6 5.7
2017-Jan-19 10:33N 44°16' E 008°40'1 0.9
2017-Jan-19 09:34N 44°17' E 008°40'4 4.4
2017-Jan-19 08:34N 44°13' E 008°37'8 7.7
2017-Jan-19 07:33N 44°06' E 008°33'3 3.2
2017-Jan-19 06:34N 44°09' E 008°35'3 2.9
2017-Jan-19 05:33N 44°12' E 008°37'3 2.6
2017-Jan-19 04:33N 44°14' E 008°39'3 2.9
2017-Jan-19 03:33N 44°16' E 008°42'1 1.2
2017-Jan-19 02:34N 44°15' E 008°40'1211.8
2017-Jan-19 01:33N 44°04' E 008°34'6 5.5
2017-Jan-19 00:33N 43°60' E 008°30'4 3.7
2017-Jan-18 23:34N 44°03' E 008°32'4 3.5
2017-Jan-18 22:34N 44°06' E 008°33'3 3.3
2017-Jan-18 21:33N 44°09' E 008°35'3 2.7
2017-Jan-18 20:33N 44°12' E 008°37'3 2.5
2017-Jan-18 19:34N 44°13' E 008°39'2 2.3
2017-Jan-18 18:34N 44°15' E 008°41'2 2.4
2017-Jan-18 17:33N 44°14' E 008°38'1211.6
2017-Jan-18 16:33N 44°05' E 008°29'3 3.1
2017-Jan-18 15:33N 44°07' E 008°31'3 3.1
2017-Jan-18 14:33N 44°10' E 008°33'3 2.7
2017-Jan-18 13:33N 44°13' E 008°35'3 2.6
2017-Jan-18 12:33N 44°14' E 008°37'3 2.8
2017-Jan-18 11:33N 44°16' E 008°40'3 2.6
2017-Jan-18 10:33N 44°18' E 008°42'1010.4
2017-Jan-18 09:33N 44°09' E 008°47'6 5.7
2017-Jan-18 08:33N 44°06' E 008°54'2 2.3
2017-Jan-18 07:33N 44°08' E 008°53'2 2.4
2017-Jan-18 06:33N 44°11' E 008°51'3 2.7
2017-Jan-18 05:33N 44°13' E 008°49'3 2.6
2017-Jan-18 04:33N 44°15' E 008°47'3 2.9
2017-Jan-18 03:33N 44°17' E 008°45'2 2.1
2017-Jan-18 02:33N 44°19' E 008°47'1515.0
2017-Jan-18 01:33N 44°10' E 009°05'1615.8
2017-Jan-18 00:33N 44°02' E 009°23'1615.6
2017-Jan-17 23:33N 43°57' E 009°44'1010.4
2017-Jan-17 22:34N 44°06' E 009°51'1 0.6
2017-Jan-17 21:33N 44°06' E 009°51'0 0.0
2017-Jan-17 20:33N 44°06' E 009°51'0 0.0
2017-Jan-17 19:33N 44°06' E 009°51'0 0.0
2017-Jan-17 18:33N 44°06' E 009°51'0 0.0
2017-Jan-17 17:33N 44°06' E 009°51'0 0.0
2017-Jan-17 16:30N 44°06' E 009°51'0 0.0
2017-Jan-17 15:33N 44°06' E 009°51'0 0.0
2017-Jan-17 14:33N 44°06' E 009°51'0 0.0
2017-Jan-17 13:33N 44°06' E 009°51'0 0.0
2017-Jan-17 12:33N 44°06' E 009°51'0 0.0
2017-Jan-17 11:33N 44°06' E 009°51'0 0.0
2017-Jan-17 10:30N 44°06' E 009°51'0 0.0
2017-Jan-17 09:30N 44°06' E 009°51'0 0.0
2017-Jan-17 08:33N 44°06' E 009°51'0 0.0
2017-Jan-17 07:30N 44°06' E 009°51'0 0.0
2017-Jan-17 06:33N 44°06' E 009°51'0 0.0
2017-Jan-17 05:33N 44°06' E 009°51'0 0.0
2017-Jan-17 04:30N 44°06' E 009°51'0 0.0
2017-Jan-17 03:33N 44°06' E 009°51'0 0.0
2017-Jan-17 02:33N 44°06' E 009°51'0 0.0
2017-Jan-17 01:33N 44°06' E 009°51'0 0.0
2017-Jan-17 00:33N 44°06' E 009°51'1 1.0
2017-Jan-16 23:34N 44°05' E 009°51'7 7.1
2017-Jan-16 22:34N 43°60' E 009°57'1211.8
2017-Jan-16 21:33N 43°51' E 009°45'1 1.1
2017-Jan-16 20:33N 43°51' E 009°44'3 3.4
2017-Jan-16 19:33N 43°52' E 009°48'3 2.5
2017-Jan-16 18:33N 43°54' E 009°50'2 2.2
2017-Jan-16 17:33N 43°56' E 009°52'4 4.0
2017-Jan-16 16:33N 43°58' E 009°56'2019.8
2017-Jan-16 15:34N 43°40' E 009°48'2120.8
2017-Jan-16 14:34N 43°19' E 009°43'2120.6
2017-Jan-16 13:33N 42°59' E 009°40'2320.2
2017-Jan-16 12:25N 42°36' E 009°48'33920.1
2017-Jan-15 19:33N 38°43' E 015°11'2020.0
2017-Jan-15 18:34N 38°34' E 015°34'1716.8
2017-Jan-15 17:33N 38°27' E 015°53'1 0.8
2017-Jan-15 16:32N 38°27' E 015°54'0 0.0
2017-Jan-15 15:32N 38°27' E 015°54'0 0.0
2017-Jan-15 14:32N 38°27' E 015°54'0 0.0
2017-Jan-15 13:32N 38°27' E 015°54'0 0.0
2017-Jan-15 11:17N 38°27' E 015°54'0 0.0
2017-Jan-15 10:23N 38°27' E 015°54'0 0.0
2017-Jan-15 09:32N 38°27' E 015°54'0 0.0
2017-Jan-15 08:32N 38°27' E 015°54'0 0.0
2017-Jan-15 07:32N 38°27' E 015°54'0 0.0
2017-Jan-15 06:29N 38°27' E 015°54'0 0.0
2017-Jan-15 05:32N 38°27' E 015°54'0 0.0
2017-Jan-15 04:32N 38°27' E 015°54'0 0.0
2017-Jan-15 03:32N 38°27' E 015°54'0 0.0
2017-Jan-15 02:32N 38°27' E 015°54'0 0.0
2017-Jan-15 01:32N 38°27' E 015°54'0 0.0
2017-Jan-15 00:32N 38°27' E 015°54'0 0.0
2017-Jan-14 23:32N 38°27' E 015°54'0 0.0
2017-Jan-14 22:32N 38°27' E 015°54'0 0.0
2017-Jan-14 21:29N 38°27' E 015°54'0 0.0
2017-Jan-14 20:32N 38°27' E 015°54'0 0.0
2017-Jan-14 19:29N 38°27' E 015°54'0 0.0
2017-Jan-14 18:32N 38°27' E 015°54'0 0.0
2017-Jan-14 17:32N 38°27' E 015°54'0 0.0
2017-Jan-14 16:32N 38°27' E 015°54'0 0.0
2017-Jan-14 15:32N 38°27' E 015°54'0 0.0
2017-Jan-14 14:32N 38°27' E 015°54'0 0.0
2017-Jan-14 13:32N 38°27' E 015°54'0 0.0
2017-Jan-14 12:32N 38°27' E 015°54'0 0.0
2017-Jan-14 11:32N 38°27' E 015°54'0 0.0
2017-Jan-14 10:32N 38°27' E 015°54'0 0.0
2017-Jan-14 09:32N 38°27' E 015°54'0 0.0
2017-Jan-14 08:32N 38°27' E 015°54'0 0.0
2017-Jan-14 07:32N 38°27' E 015°54'0 0.0
2017-Jan-14 06:32N 38°27' E 015°54'0 0.0
2017-Jan-14 05:32N 38°27' E 015°54'0 0.0
2017-Jan-14 04:32N 38°27' E 015°54'0 0.0
2017-Jan-14 03:32N 38°27' E 015°54'0 0.0
2017-Jan-13 23:29N 38°27' E 015°54'0 0.0
2017-Jan-13 22:32N 38°27' E 015°54'0 0.0
2017-Jan-13 21:32N 38°27' E 015°54'0 0.0
2017-Jan-13 20:32N 38°27' E 015°54'0 0.0
2017-Jan-13 19:33N 38°27' E 015°54'4 2.6
2017-Jan-13 18:06N 38°26' E 015°50'814.7
2017-Jan-13 17:33N 38°19' E 015°44'1515.1
2017-Jan-13 16:33N 38°05' E 015°36'1414.0
2017-Jan-13 15:33N 37°53' E 015°44'  
Track history (hours):
 
Tides and Currents Weather Stations Pressure Air Temp Water Temp Dewpoint Dewpoint Depression Visibility Wind Speed Wind Dir Waves Ship Positions

MSC Clorinda

Last reported at 2017-Jan-23 14:31 UTC. Time now 2017-Jan-23 14:55 UTC.
Position N 43°10' E 005°07'.

Length 366 m; draft 11 m.

Type: Ship (hazmat cat A). MMSI: 373233000.

Date/timePositionNaut miles runAvg speedWind from/ knotsBaromVisibWave heightAir tempDewpointWater temp
2017-Jan-23 14:31N 43°10' E 005°07'13 6.6
2017-Jan-23 12:33N 43°01' E 005°21'8 6.7
2017-Jan-23 11:26N 42°56' E 005°29'6 5.8
2017-Jan-23 10:26N 42°53' E 005°35'7 6.7
2017-Jan-23 09:27N 42°48' E 005°41'6613.5
2017-Jan-23 04:32N 43°01' E 007°10'2120.9
2017-Jan-23 03:34N 43°10' E 007°35'2120.6
2017-Jan-23 02:31N 43°21' E 008°00'2121.1
2017-Jan-23 01:32N 43°40' E 008°13'2121.4
2017-Jan-23 00:34N 43°58' E 008°26'2121.0
2017-Jan-22 23:34N 44°17' E 008°39'10 9.0
2017-Jan-22 22:28N 44°25' E 008°47'0 0.0
2017-Jan-22 21:31N 44°25' E 008°47'0 0.0
2017-Jan-22 20:31N 44°25' E 008°47'0 0.0
2017-Jan-22 19:31N 44°25' E 008°47'0 0.0
2017-Jan-22 18:31N 44°25' E 008°47'0 0.0
2017-Jan-22 17:31N 44°25' E 008°47'0 0.0
2017-Jan-22 16:31N 44°25' E 008°47'0 0.0
2017-Jan-22 15:31N 44°25' E 008°47'0 0.0
2017-Jan-22 14:31N 44°25' E 008°47'0 0.0
2017-Jan-22 13:31N 44°25' E 008°47'0 0.0
2017-Jan-22 12:31N 44°25' E 008°47'0 0.0
2017-Jan-22 11:31N 44°25' E 008°47'0 0.0
2017-Jan-22 10:28N 44°25' E 008°47'0 0.0
2017-Jan-22 09:31N 44°25' E 008°47'0 0.0
2017-Jan-22 08:31N 44°25' E 008°47'0 0.0
2017-Jan-22 07:31N 44°25' E 008°47'0 0.0
2017-Jan-22 06:31N 44°25' E 008°47'0 0.0
2017-Jan-22 05:31N 44°25' E 008°47'0 0.0
2017-Jan-22 04:31N 44°25' E 008°47'0 0.0
2017-Jan-22 03:31N 44°25' E 008°47'0 0.0
2017-Jan-22 02:31N 44°25' E 008°47'0 0.0
2017-Jan-22 01:31N 44°25' E 008°47'0 0.0
2017-Jan-22 00:31N 44°25' E 008°47'0 0.0
2017-Jan-21 23:31N 44°25' E 008°47'0 0.0
2017-Jan-21 22:31N 44°25' E 008°47'0 0.0
2017-Jan-21 21:31N 44°25' E 008°47'0 0.0
2017-Jan-21 20:31N 44°25' E 008°47'0 0.0
2017-Jan-21 19:31N 44°25' E 008°47'0 0.0
2017-Jan-21 18:28N 44°25' E 008°47'0 0.0
2017-Jan-21 17:31N 44°25' E 008°47'0 0.0
2017-Jan-21 16:31N 44°25' E 008°47'0 0.0
2017-Jan-21 15:31N 44°25' E 008°47'0 0.0
2017-Jan-21 14:31N 44°25' E 008°47'0 0.0
2017-Jan-21 13:31N 44°25' E 008°47'0 0.0
2017-Jan-21 12:31N 44°25' E 008°47'0 0.0
2017-Jan-21 11:31N 44°25' E 008°47'0 0.0
2017-Jan-21 10:31N 44°25' E 008°47'0 0.0
2017-Jan-21 09:31N 44°25' E 008°47'0 0.0
2017-Jan-21 08:31N 44°25' E 008°47'0 0.0
2017-Jan-21 07:31N 44°25' E 008°47'0 0.0
2017-Jan-21 06:31N 44°25' E 008°47'0 0.0
2017-Jan-21 05:31N 44°25' E 008°47'0 0.0
2017-Jan-21 04:31N 44°25' E 008°47'0 0.0
2017-Jan-21 03:31N 44°25' E 008°47'0 0.0
2017-Jan-21 02:31N 44°25' E 008°47'0 0.0
2017-Jan-21 01:31N 44°25' E 008°47'0 0.0
2017-Jan-21 00:31N 44°25' E 008°47'0 0.0
2017-Jan-20 23:31N 44°25' E 008°47'0 0.0
2017-Jan-20 22:31N 44°25' E 008°47'0 0.0
2017-Jan-20 21:31N 44°25' E 008°47'0 0.0
2017-Jan-20 20:31N 44°25' E 008°47'0 0.0
2017-Jan-20 19:31N 44°25' E 008°47'0 0.0
2017-Jan-20 18:31N 44°25' E 008°47'0 0.0
2017-Jan-20 17:25N 44°25' E 008°47'0 0.0
2017-Jan-20 16:31N 44°25' E 008°47'0 0.0
2017-Jan-20 15:25N 44°25' E 008°47'0 0.0
2017-Jan-20 14:28N 44°25' E 008°47'0 0.0
2017-Jan-20 13:28N 44°25' E 008°47'0 0.0
2017-Jan-20 12:31N 44°25' E 008°47'0 0.0
2017-Jan-20 11:31N 44°25' E 008°47'0 0.0
2017-Jan-20 10:31N 44°25' E 008°47'0 0.0
2017-Jan-20 09:28N 44°25' E 008°47'0 0.0
2017-Jan-20 08:31N 44°25' E 008°47'0 0.0
2017-Jan-20 07:31N 44°25' E 008°47'0 0.0
2017-Jan-20 06:31N 44°25' E 008°47'0 0.0
2017-Jan-20 05:31N 44°25' E 008°47'0 0.0
2017-Jan-20 04:31N 44°25' E 008°47'0 0.0
2017-Jan-20 03:31N 44°25' E 008°47'0 0.0
2017-Jan-20 02:31N 44°25' E 008°47'0 0.0
2017-Jan-20 01:31N 44°25' E 008°47'0 0.0
2017-Jan-20 00:31N 44°25' E 008°47'0 0.0
2017-Jan-19 23:25N 44°25' E 008°47'0 0.0
2017-Jan-19 22:31N 44°25' E 008°47'0 0.0
2017-Jan-19 21:31N 44°25' E 008°47'0 0.0
2017-Jan-19 20:31N 44°25' E 008°47'0 0.0
2017-Jan-19 19:28N 44°25' E 008°47'0 0.0
2017-Jan-19 18:28N 44°25' E 008°47'0 0.0
2017-Jan-19 17:31N 44°25' E 008°47'0 0.0
2017-Jan-19 16:31N 44°25' E 008°47'0 0.0
2017-Jan-19 15:31N 44°25' E 008°47'0 0.0
2017-Jan-19 14:31N 44°25' E 008°47'0 0.0
2017-Jan-19 13:33N 44°25' E 008°47'3 2.9
2017-Jan-19 12:34N 44°23' E 008°44'2 1.7
2017-Jan-19 11:33N 44°22' E 008°43'6 5.7
2017-Jan-19 10:33N 44°16' E 008°40'1 0.9
2017-Jan-19 09:34N 44°17' E 008°40'4 4.4
2017-Jan-19 08:34N 44°13' E 008°37'8 7.7
2017-Jan-19 07:33N 44°06' E 008°33'3 3.2
2017-Jan-19 06:34N 44°09' E 008°35'3 2.9
2017-Jan-19 05:33N 44°12' E 008°37'3 2.6
2017-Jan-19 04:33N 44°14' E 008°39'3 2.9
2017-Jan-19 03:33N 44°16' E 008°42'1 1.2
2017-Jan-19 02:34N 44°15' E 008°40'1211.8
2017-Jan-19 01:33N 44°04' E 008°34'6 5.5
2017-Jan-19 00:33N 43°60' E 008°30'4 3.7
2017-Jan-18 23:34N 44°03' E 008°32'4 3.5
2017-Jan-18 22:34N 44°06' E 008°33'3 3.3
2017-Jan-18 21:33N 44°09' E 008°35'3 2.7
2017-Jan-18 20:33N 44°12' E 008°37'3 2.5
2017-Jan-18 19:34N 44°13' E 008°39'2 2.3
2017-Jan-18 18:34N 44°15' E 008°41'2 2.4
2017-Jan-18 17:33N 44°14' E 008°38'1211.6
2017-Jan-18 16:33N 44°05' E 008°29'3 3.1
2017-Jan-18 15:33N 44°07' E 008°31'3 3.1
2017-Jan-18 14:33N 44°10' E 008°33'3 2.7
2017-Jan-18 13:33N 44°13' E 008°35'3 2.6
2017-Jan-18 12:33N 44°14' E 008°37'3 2.8
2017-Jan-18 11:33N 44°16' E 008°40'3 2.6
2017-Jan-18 10:33N 44°18' E 008°42'1010.4
2017-Jan-18 09:33N 44°09' E 008°47'6 5.7
2017-Jan-18 08:33N 44°06' E 008°54'2 2.3
2017-Jan-18 07:33N 44°08' E 008°53'2 2.4
2017-Jan-18 06:33N 44°11' E 008°51'3 2.7
2017-Jan-18 05:33N 44°13' E 008°49'3 2.6
2017-Jan-18 04:33N 44°15' E 008°47'3 2.9
2017-Jan-18 03:33N 44°17' E 008°45'2 2.1
2017-Jan-18 02:33N 44°19' E 008°47'1515.0
2017-Jan-18 01:33N 44°10' E 009°05'1615.8
2017-Jan-18 00:33N 44°02' E 009°23'1615.6
2017-Jan-17 23:33N 43°57' E 009°44'1010.4
2017-Jan-17 22:34N 44°06' E 009°51'1 0.6
2017-Jan-17 21:33N 44°06' E 009°51'0 0.0
2017-Jan-17 20:33N 44°06' E 009°51'0 0.0
2017-Jan-17 19:33N 44°06' E 009°51'0 0.0
2017-Jan-17 18:33N 44°06' E 009°51'0 0.0
2017-Jan-17 17:33N 44°06' E 009°51'0 0.0
2017-Jan-17 16:30N 44°06' E 009°51'0 0.0
2017-Jan-17 15:33N 44°06' E 009°51'0 0.0
2017-Jan-17 14:33N 44°06' E 009°51'0 0.0
2017-Jan-17 13:33N 44°06' E 009°51'0 0.0
2017-Jan-17 12:33N 44°06' E 009°51'0 0.0
2017-Jan-17 11:33N 44°06' E 009°51'0 0.0
2017-Jan-17 10:30N 44°06' E 009°51'0 0.0
2017-Jan-17 09:30N 44°06' E 009°51'0 0.0
2017-Jan-17 08:33N 44°06' E 009°51'0 0.0
2017-Jan-17 07:30N 44°06' E 009°51'0 0.0
2017-Jan-17 06:33N 44°06' E 009°51'0 0.0
2017-Jan-17 05:33N 44°06' E 009°51'0 0.0
2017-Jan-17 04:30N 44°06' E 009°51'0 0.0
2017-Jan-17 03:33N 44°06' E 009°51'0 0.0
2017-Jan-17 02:33N 44°06' E 009°51'0 0.0
2017-Jan-17 01:33N 44°06' E 009°51'0 0.0
2017-Jan-17 00:33N 44°06' E 009°51'1 1.0
2017-Jan-16 23:34N 44°05' E 009°51'7 7.1
2017-Jan-16 22:34N 43°60' E 009°57'1211.8
2017-Jan-16 21:33N 43°51' E 009°45'1 1.1
2017-Jan-16 20:33N 43°51' E 009°44'3 3.4
2017-Jan-16 19:33N 43°52' E 009°48'3 2.5
2017-Jan-16 18:33N 43°54' E 009°50'2 2.2
2017-Jan-16 17:33N 43°56' E 009°52'4 4.0
2017-Jan-16 16:33N 43°58' E 009°56'2019.8
2017-Jan-16 15:34N 43°40' E 009°48'2120.8
2017-Jan-16 14:34N 43°19' E 009°43'2120.6
2017-Jan-16 13:33N 42°59' E 009°40'2320.2
2017-Jan-16 12:25N 42°36' E 009°48'33920.1
2017-Jan-15 19:33N 38°43' E 015°11'2020.0
2017-Jan-15 18:34N 38°34' E 015°34'1716.8
2017-Jan-15 17:33N 38°27' E 015°53'1 0.8
2017-Jan-15 16:32N 38°27' E 015°54'0 0.0
2017-Jan-15 15:32N 38°27' E 015°54'0 0.0
2017-Jan-15 14:32N 38°27' E 015°54'0 0.0
2017-Jan-15 13:32N 38°27' E 015°54'0 0.0
2017-Jan-15 11:17N 38°27' E 015°54'0 0.0
2017-Jan-15 10:23N 38°27' E 015°54'0 0.0
2017-Jan-15 09:32N 38°27' E 015°54'0 0.0
2017-Jan-15 08:32N 38°27' E 015°54'0 0.0
2017-Jan-15 07:32N 38°27' E 015°54'0 0.0
2017-Jan-15 06:29N 38°27' E 015°54'0 0.0
2017-Jan-15 05:32N 38°27' E 015°54'0 0.0
2017-Jan-15 04:32N 38°27' E 015°54'0 0.0
2017-Jan-15 03:32N 38°27' E 015°54'0 0.0
2017-Jan-15 02:32N 38°27' E 015°54'0 0.0
2017-Jan-15 01:32N 38°27' E 015°54'0 0.0
2017-Jan-15 00:32N 38°27' E 015°54'0 0.0
2017-Jan-14 23:32N 38°27' E 015°54'0 0.0
2017-Jan-14 22:32N 38°27' E 015°54'0 0.0
2017-Jan-14 21:29N 38°27' E 015°54'0 0.0
2017-Jan-14 20:32N 38°27' E 015°54'0 0.0
2017-Jan-14 19:29N 38°27' E 015°54'0 0.0
2017-Jan-14 18:32N 38°27' E 015°54'0 0.0
2017-Jan-14 17:32N 38°27' E 015°54'0 0.0
2017-Jan-14 16:32N 38°27' E 015°54'0 0.0
2017-Jan-14 15:32N 38°27' E 015°54'0 0.0
2017-Jan-14 14:32N 38°27' E 015°54'0 0.0
2017-Jan-14 13:32N 38°27' E 015°54'0 0.0
2017-Jan-14 12:32N 38°27' E 015°54'0 0.0
2017-Jan-14 11:32N 38°27' E 015°54'0 0.0
2017-Jan-14 10:32N 38°27' E 015°54'0 0.0
2017-Jan-14 09:32N 38°27' E 015°54'0 0.0
2017-Jan-14 08:32N 38°27' E 015°54'0 0.0
2017-Jan-14 07:32N 38°27' E 015°54'0 0.0
2017-Jan-14 06:32N 38°27' E 015°54'0 0.0
2017-Jan-14 05:32N 38°27' E 015°54'0 0.0
2017-Jan-14 04:32N 38°27' E 015°54'0 0.0
2017-Jan-14 03:32N 38°27' E 015°54'0 0.0
2017-Jan-13 23:29N 38°27' E 015°54'0 0.0
2017-Jan-13 22:32N 38°27' E 015°54'0 0.0
2017-Jan-13 21:32N 38°27' E 015°54'0 0.0
2017-Jan-13 20:32N 38°27' E 015°54'0 0.0
2017-Jan-13 19:33N 38°27' E 015°54'4 2.6
2017-Jan-13 18:06N 38°26' E 015°50'814.7
2017-Jan-13 17:33N 38°19' E 015°44'1515.1
2017-Jan-13 16:33N 38°05' E 015°36'1414.0
2017-Jan-13 15:33N 37°53' E 015°44'  

Dump ship's entire track history